Time;durP1;ratioP1;P1;durP2;ratioP2;P2;SDS_P1;SDS_P2;PMS_P1;PMS_P2;Temp;Humidity;BMP_temperature;BMP_pressure;BME280_temperature;BME280_humidity;BME280_pressure;Samples;Min_cycle;Max_cycle;Signal;HPM_P1;HPM_P2
2021/11/15 00:02:56;;;;;;;7.70;4.60;;;9.10;99.90;;;;;;6717883;88;20774;-76
2021/11/15 00:12:57;;;;;;;7.68;4.37;;;9.20;99.90;;;;;;6734457;88;21522;-78
2021/11/15 00:22:57;;;;;;;7.87;4.70;;;9.10;99.90;;;;;;6716862;88;20189;-77
2021/11/15 00:32:58;;;;;;;8.50;4.78;;;9.20;99.90;;;;;;6718737;88;20258;-77
2021/11/15 00:42:58;;;;;;;7.53;4.50;;;9.00;99.90;;;;;;6721617;88;20200;-74
2021/11/15 00:52:59;;;;;;;8.18;5.18;;;9.10;99.90;;;;;;6717274;88;20182;-78
2021/11/15 01:03:06;;;;;;;8.60;5.50;;;9.00;99.90;;;;;;6716239;88;20248;-78
2021/11/15 01:13:06;;;;;;;;;;;9.20;99.90;;;;;;6716261;88;20173;-79
2021/11/15 01:23:08;;;;;;;8.35;5.53;;;9.10;99.90;;;;;;6714675;88;20074;-78
2021/11/15 01:33:09;;;;;;;7.45;5.12;;;9.00;99.90;;;;;;6716093;88;20199;-76
2021/11/15 01:43:09;;;;;;;8.50;5.65;;;9.10;99.90;;;;;;6720045;88;20193;-75
2021/11/15 01:53:11;;;;;;;8.65;5.72;;;8.90;99.90;;;;;;6720417;88;20289;-76
2021/11/15 02:03:12;;;;;;;12.32;5.45;;;9.00;99.90;;;;;;6720829;88;20189;-75
2021/11/15 02:13:15;;;;;;;10.43;5.82;;;9.10;99.90;;;;;;6724598;88;20346;-79
2021/11/15 02:23:17;;;;;;;12.60;6.55;;;9.10;99.90;;;;;;6736051;88;20208;-78
2021/11/15 02:33:18;;;;;;;10.52;6.22;;;9.00;99.90;;;;;;6735172;88;22758;-77
2021/11/15 02:43:19;;;;;;;13.55;7.00;;;9.10;99.90;;;;;;6717921;88;20231;-75
2021/11/15 02:53:20;;;;;;;13.52;7.15;;;8.90;99.90;;;;;;6718760;88;20211;-79
2021/11/15 03:03:21;;;;;;;12.55;7.25;;;8.90;99.90;;;;;;6717336;88;20251;-79
2021/11/15 03:13:22;;;;;;;14.00;7.63;;;9.10;99.90;;;;;;6716947;88;20182;-77
2021/11/15 03:23:25;;;;;;;13.90;7.83;;;9.00;99.90;;;;;;6717490;88;20510;-77
2021/11/15 03:33:28;;;;;;;15.05;8.02;;;8.90;99.90;;;;;;6719752;88;20609;-76
2021/11/15 03:43:30;;;;;;;15.48;7.85;;;8.90;99.90;;;;;;6718569;88;20229;-76
2021/11/15 03:53:35;;;;;;;15.43;7.75;;;9.00;99.90;;;;;;6717762;88;20255;-78
2021/11/15 04:03:38;;;;;;;14.23;8.02;;;9.10;99.90;;;;;;6715952;88;20332;-78
2021/11/15 04:13:41;;;;;;;14.73;7.62;;;9.00;99.90;;;;;;6716789;88;20838;-78
2021/11/15 04:23:42;;;;;;;15.27;7.75;;;8.80;99.90;;;;;;6712715;88;20201;-77
2021/11/15 04:33:43;;;;;;;13.52;7.62;;;8.90;99.90;;;;;;6716913;88;20785;-78
2021/11/15 04:43:43;;;;;;;15.57;8.57;;;8.80;99.90;;;;;;6716417;88;20236;-78
2021/11/15 04:53:44;;;;;;;14.55;8.18;;;8.70;99.90;;;;;;6716444;88;20526;-78
2021/11/15 05:03:44;;;;;;;15.52;8.00;;;8.90;99.90;;;;;;6712336;88;20237;-78
2021/11/15 05:13:45;;;;;;;14.23;7.83;;;8.80;99.90;;;;;;6716838;77;20218;-79
2021/11/15 05:23:45;;;;;;;12.93;7.03;;;8.90;99.90;;;;;;6697620;88;20518;-77
2021/11/15 05:33:46;;;;;;;13.80;7.30;;;8.70;99.90;;;;;;6700423;88;20338;-77
2021/11/15 05:43:46;;;;;;;14.05;7.60;;;8.80;99.90;;;;;;6701025;88;20182;-77
2021/11/15 05:53:47;;;;;;;14.82;7.90;;;8.80;99.90;;;;;;6704371;88;20217;-77
2021/11/15 06:03:47;;;;;;;13.30;7.68;;;8.70;99.90;;;;;;6702023;88;20728;-77
2021/11/15 06:13:48;;;;;;;18.30;8.18;;;8.80;99.90;;;;;;6701824;88;20883;-77
2021/11/15 06:23:48;;;;;;;15.50;8.02;;;8.70;99.90;;;;;;6706115;88;20196;-77
2021/11/15 06:33:49;;;;;;;16.35;8.57;;;8.80;99.90;;;;;;6713517;88;20202;-77
2021/11/15 06:43:50;;;;;;;21.80;9.98;;;8.80;99.90;;;;;;6702575;88;20186;-76
2021/11/15 06:53:51;;;;;;;19.02;9.02;;;8.70;99.90;;;;;;6706667;88;20219;-76
2021/11/15 07:03:52;;;;;;;18.35;9.18;;;8.70;99.90;;;;;;6707165;88;20345;-76
2021/11/15 07:13:53;;;;;;;19.83;9.10;;;8.70;99.90;;;;;;6707073;88;20224;-80
2021/11/15 07:23:53;;;;;;;20.00;10.40;;;8.70;99.90;;;;;;6709014;88;20379;-77
2021/11/15 07:33:56;;;;;;;20.40;9.75;;;8.80;99.90;;;;;;6705040;88;20714;-77
2021/11/15 07:43:56;;;;;;;20.83;9.73;;;8.80;99.90;;;;;;6701438;88;20218;-76
2021/11/15 07:53:57;;;;;;;19.80;9.40;;;8.70;99.90;;;;;;6705502;88;20711;-77
2021/11/15 08:03:57;;;;;;;17.73;8.63;;;8.80;99.90;;;;;;6707033;88;20278;-78
2021/11/15 08:13:58;;;;;;;20.62;9.32;;;8.80;99.90;;;;;;6720880;88;20262;-78
2021/11/15 08:24:17;;;;;;;18.50;9.35;;;8.80;99.90;;;;;;6712666;88;20222;-78
2021/11/15 08:34:18;;;;;;;20.08;9.57;;;8.80;99.90;;;;;;6708557;88;20277;-77
2021/11/15 08:44:20;;;;;;;20.35;9.10;;;8.80;99.90;;;;;;6705225;88;20185;-78
2021/11/15 08:54:22;;;;;;;21.23;9.45;;;8.80;99.90;;;;;;6720869;88;20244;-78
2021/11/15 09:04:23;;;;;;;20.12;10.05;;;8.80;99.90;;;;;;6722303;88;20189;-78
2021/11/15 09:14:24;;;;;;;19.35;9.00;;;8.90;99.90;;;;;;6721684;88;20229;-78
2021/11/15 09:24:25;;;;;;;20.23;9.85;;;9.00;99.90;;;;;;6716089;88;20664;-77
2021/11/15 09:34:26;;;;;;;19.83;9.25;;;8.90;99.90;;;;;;6704901;88;20247;-77
2021/11/15 09:44:26;;;;;;;19.08;9.18;;;8.90;99.90;;;;;;6712443;88;20188;-78
2021/11/15 09:54:27;;;;;;;17.95;8.82;;;8.70;99.90;;;;;;6723945;88;20230;-78
2021/11/15 10:04:28;;;;;;;17.10;8.73;;;8.80;99.90;;;;;;6724359;88;20703;-78
2021/11/15 10:14:28;;;;;;;16.60;8.23;;;9.00;99.90;;;;;;6710681;88;20210;-77
2021/11/15 10:24:35;;;;;;;14.35;8.02;;;8.90;99.90;;;;;;6709274;88;20512;-77
2021/11/15 10:34:37;;;;;;;15.68;8.48;;;9.00;99.90;;;;;;6719023;88;20212;-77
2021/11/15 10:44:44;;;;;;;16.02;7.87;;;8.80;99.90;;;;;;6724053;88;20205;-77
2021/11/15 10:54:53;;;;;;;13.80;7.47;;;8.80;99.90;;;;;;6716740;88;20265;-78
2021/11/15 11:05:10;;;;;;;15.52;7.97;;;8.70;99.90;;;;;;6730630;88;20310;-78
2021/11/15 11:15:33;;;;;;;13.30;7.30;;;8.70;99.90;;;;;;6726374;88;20714;-77
2021/11/15 11:25:34;;;;;;;15.90;8.80;;;8.70;99.90;;;;;;6713792;88;20668;-78
2021/11/15 11:35:35;;;;;;;12.25;6.35;;;8.90;99.90;;;;;;6713265;88;20376;-77
2021/11/15 11:45:35;;;;;;;18.67;7.40;;;8.80;99.90;;;;;;6698732;88;20233;-77
2021/11/15 11:55:41;;;;;;;13.60;6.78;;;8.60;99.90;;;;;;6713728;88;20206;-78
2021/11/15 12:06:02;;;;;;;11.83;6.50;;;8.80;99.90;;;;;;6715344;88;20609;-77
2021/11/15 12:16:05;;;;;;;13.55;7.20;;;8.70;99.90;;;;;;6713723;88;20291;-78
2021/11/15 12:26:52;;;;;;;15.82;7.40;;;8.80;99.90;;;;;;6717827;88;20235;-78
2021/11/15 12:36:54;;;;;;;12.37;5.80;;;8.70;99.90;;;;;;6730030;88;20270;-77
2021/11/15 12:47:12;;;;;;;11.20;5.18;;;8.60;99.90;;;;;;6716826;88;20239;-78
2021/11/15 12:57:27;;;;;;;12.55;6.60;;;8.40;99.90;;;;;;6714959;88;20638;-77
2021/11/15 13:07:28;;;;;;;13.38;5.72;;;8.30;99.90;;;;;;6714857;88;20193;-78
2021/11/15 13:17:29;;;;;;;12.15;5.78;;;8.20;99.90;;;;;;6711929;88;20328;-77
2021/11/15 13:27:29;;;;;;;11.88;5.97;;;8.00;99.90;;;;;;6701635;88;20270;-76
2021/11/15 13:37:30;;;;;;;12.43;5.95;;;7.90;99.90;;;;;;6703695;88;20240;-77
2021/11/15 13:47:30;;;;;;;12.07;6.07;;;7.80;99.90;;;;;;6699045;88;20605;-77
2021/11/15 13:57:31;;;;;;;14.13;6.12;;;8.00;99.90;;;;;;6703245;88;20236;-76
2021/11/15 14:07:32;;;;;;;14.32;6.10;;;7.90;99.90;;;;;;6713876;88;21039;-77
2021/11/15 14:17:32;;;;;;;22.27;6.85;;;8.00;99.90;;;;;;6720585;88;20229;-77
2021/11/15 14:27:33;;;;;;;14.53;6.77;;;8.00;99.90;;;;;;6719834;88;20658;-77
2021/11/15 14:37:35;;;;;;;15.38;6.57;;;8.00;99.90;;;;;;6719914;88;20518;-77
2021/11/15 14:47:36;;;;;;;12.57;6.03;;;7.90;99.90;;;;;;6718822;88;20197;-77
2021/11/15 14:57:38;;;;;;;12.35;6.45;;;8.00;99.90;;;;;;6719384;88;20227;-77
2021/11/15 15:07:39;;;;;;;11.57;6.75;;;7.80;99.90;;;;;;6719959;88;21105;-77
2021/11/15 15:17:39;;;;;;;12.30;6.50;;;7.80;99.90;;;;;;6723372;88;20217;-77
2021/11/15 15:27:40;;;;;;;14.87;7.32;;;7.80;99.90;;;;;;6715459;88;20189;-77
2021/11/15 15:37:42;;;;;;;14.68;6.80;;;7.70;99.90;;;;;;6723487;88;20677;-77
2021/11/15 15:47:50;;;;;;;11.55;6.93;;;7.60;99.90;;;;;;6721503;88;20437;-78
2021/11/15 15:57:50;;;;;;;10.82;6.43;;;7.60;99.90;;;;;;6727490;88;20161;-78
2021/11/15 16:18:13;;;;;;;12.35;6.95;;;7.40;99.90;;;;;;6701746;88;20194;-77
2021/11/15 16:28:13;;;;;;;12.35;7.43;;;7.50;99.90;;;;;;6703219;88;20838;-77
2021/11/15 16:38:14;;;;;;;12.90;7.12;;;7.40;99.90;;;;;;6711247;88;20279;-77
2021/11/15 16:48:15;;;;;;;14.87;7.90;;;7.30;99.90;;;;;;6703438;88;20650;-77
2021/11/15 16:58:19;;;;;;;13.13;7.72;;;7.40;99.90;;;;;;6715008;88;20203;-77
2021/11/15 17:08:24;;;;;;;13.80;7.87;;;7.30;99.90;;;;;;6711801;88;20726;-77
2021/11/15 17:18:28;;;;;;;14.60;8.17;;;7.20;99.90;;;;;;6718965;77;20195;-76
2021/11/15 17:28:29;;;;;;;17.27;8.70;;;7.40;99.90;;;;;;6738282;88;20360;-77
2021/11/15 17:38:30;;;;;;;16.58;9.00;;;7.40;99.90;;;;;;6734841;88;20184;-77
2021/11/15 17:48:32;;;;;;;15.30;8.68;;;7.30;99.90;;;;;;6728982;88;20237;-78
2021/11/15 17:58:45;;;;;;;13.68;7.78;;;7.40;99.90;;;;;;6739412;88;20188;-79
2021/11/15 18:08:46;;;;;;;14.25;8.18;;;7.10;99.90;;;;;;6738277;88;20222;-79
2021/11/15 18:18:48;;;;;;;15.60;9.20;;;7.10;99.90;;;;;;6744049;88;20741;-79
2021/11/15 18:28:49;;;;;;;16.37;8.82;;;7.10;99.90;;;;;;6749576;88;20953;-79
2021/11/15 18:38:51;;;;;;;16.50;8.75;;;7.10;99.90;;;;;;6735057;88;20264;-79
2021/11/15 18:48:53;;;;;;;14.90;8.30;;;7.10;99.90;;;;;;6733607;88;20268;-79
2021/11/15 18:58:53;;;;;;;14.48;8.10;;;7.20;99.90;;;;;;6741150;88;20267;-79
2021/11/15 19:09:10;;;;;;;13.45;6.95;;;7.20;99.90;;;;;;6736889;88;20202;-78
2021/11/15 19:19:11;;;;;;;;;;;7.20;99.90;;;;;;6729547;88;20241;-78
2021/11/15 19:29:14;;;;;;;12.82;7.45;;;7.20;99.90;;;;;;6726210;88;20481;-78
2021/11/15 19:39:23;;;;;;;15.73;8.70;;;7.10;99.90;;;;;;6739169;88;20280;-79
2021/11/15 19:49:24;;;;;;;15.80;8.00;;;7.10;99.90;;;;;;6731254;88;20274;-80
2021/11/15 19:59:24;;;;;;;14.10;7.80;;;7.30;99.90;;;;;;6744680;88;20220;-79
2021/11/15 20:09:25;;;;;;;14.32;7.40;;;7.10;99.90;;;;;;6742393;88;20210;-79
2021/11/15 20:19:26;;;;;;;13.93;7.20;;;6.90;99.90;;;;;;6750989;88;20208;-81
2021/11/15 20:29:27;;;;;;;14.20;8.20;;;7.10;99.90;;;;;;6759233;88;20196;-80
2021/11/15 20:39:28;;;;;;;15.30;8.05;;;7.00;99.90;;;;;;6755031;88;20265;-80
2021/11/15 20:49:29;;;;;;;11.00;7.00;;;7.20;99.90;;;;;;6749964;88;20222;-80
2021/11/15 20:59:30;;;;;;;17.12;8.93;;;7.20;99.90;;;;;;6750894;88;20200;-80
2021/11/15 21:09:30;;;;;;;15.75;8.57;;;7.00;99.90;;;;;;6738214;88;20186;-81
2021/11/15 21:19:31;;;;;;;13.27;8.00;;;7.00;99.90;;;;;;6735758;88;20191;-81
2021/11/15 21:29:32;;;;;;;14.90;8.63;;;6.90;99.90;;;;;;6739852;88;20621;-79
2021/11/15 21:39:34;;;;;;;16.05;8.13;;;7.20;99.90;;;;;;6739073;88;20188;-79
2021/11/15 21:49:35;;;;;;;15.75;8.43;;;7.10;99.90;;;;;;6744902;88;20190;-79
2021/11/15 21:59:36;;;;;;;16.45;8.70;;;7.00;99.90;;;;;;6745276;88;20299;-79
2021/11/15 22:09:37;;;;;;;17.23;8.75;;;6.90;99.90;;;;;;6745957;88;20197;-78
2021/11/15 22:19:37;;;;;;;15.45;8.23;;;6.90;99.90;;;;;;6747863;88;20882;-79
2021/11/15 22:29:38;;;;;;;13.35;7.62;;;7.00;99.90;;;;;;6747997;88;20225;-79
2021/11/15 22:39:39;;;;;;;16.00;8.85;;;7.20;99.90;;;;;;6746844;88;20249;-79
2021/11/15 22:49:39;;;;;;;17.10;9.23;;;7.30;99.90;;;;;;6746689;88;20211;-79
2021/11/15 22:59:40;;;;;;;17.87;9.27;;;7.20;99.90;;;;;;6745789;88;20567;-78
2021/11/15 23:09:40;;;;;;;18.08;9.48;;;7.10;99.90;;;;;;6743745;88;20543;-82
2021/11/15 23:30:44;;;;;;;15.90;8.50;;;7.40;99.90;;;;;;6679627;88;20192;-77
2021/11/15 23:40:45;;;;;;;17.45;8.30;;;7.20;99.90;;;;;;6679472;88;21426;-77
2021/11/15 23:50:46;;;;;;;12.68;6.97;;;7.10;99.90;;;;;;6677819;88;20727;-76
